createdAt,value
2022-11-13T00:01:31.203Z,108.47
2022-11-13T00:06:57.772Z,94.60
2022-11-13T00:12:19.898Z,73.13
2022-11-13T00:17:40.744Z,77.07
2022-11-13T00:23:01.564Z,69.63
2022-11-13T00:28:22.554Z,62.80
2022-11-13T00:34:09.198Z,63.77
2022-11-13T00:39:24.264Z,68.50
2022-11-13T00:44:45.274Z,61.40
2022-11-13T00:50:06.445Z,58.80
2022-11-13T00:55:27.203Z,61.07
2022-11-13T01:00:49.078Z,58.10
2022-11-13T01:06:24.580Z,53.03
2022-11-13T01:11:45.300Z,48.83
2022-11-13T01:17:06.118Z,46.23
2022-11-13T01:22:27.152Z,47.90
2022-11-13T01:27:47.945Z,45.37
2022-11-13T01:33:08.811Z,42.40
2022-11-13T01:38:34.285Z,43.87
2022-11-13T01:43:57.657Z,38.80
2022-11-13T01:49:26.918Z,42.97
2022-11-13T01:54:56.950Z,43.17
2022-11-13T02:00:18.126Z,37.77
2022-11-13T02:05:39.110Z,34.00
2022-11-13T02:11:00.091Z,41.43
2022-11-13T02:16:22.533Z,37.47
2022-11-13T02:22:15.445Z,37.07
2022-11-13T02:27:50.410Z,35.40
2022-11-13T02:33:40.464Z,33.50
2022-11-13T02:39:06.779Z,31.20
2022-11-13T02:44:27.963Z,30.03
2022-11-13T02:49:48.718Z,42.60
2022-11-13T02:55:09.836Z,33.93
2022-11-13T03:00:30.598Z,29.23
2022-11-13T03:05:51.625Z,31.60
2022-11-13T03:11:13.101Z,27.77
2022-11-13T03:16:35.143Z,28.17
2022-11-13T03:21:56.091Z,29.27
2022-11-13T03:27:17.039Z,25.80
2022-11-13T03:32:37.860Z,26.27
2022-11-13T03:37:58.662Z,24.27
2022-11-13T03:43:19.592Z,24.20
2022-11-13T03:48:40.667Z,22.30
2022-11-13T03:54:01.477Z,23.23
2022-11-13T03:59:22.441Z,23.13
2022-11-13T04:04:44.638Z,22.73
2022-11-13T04:10:05.790Z,23.33
2022-11-13T04:15:26.888Z,35.47
2022-11-13T04:20:47.946Z,33.87
2022-11-13T04:26:08.805Z,28.47
2022-11-13T04:31:29.907Z,23.57
2022-11-13T04:36:50.709Z,22.70
2022-11-13T04:42:30.764Z,22.37
2022-11-13T04:47:51.664Z,24.70
2022-11-13T04:53:12.488Z,27.03
2022-11-13T04:58:33.541Z,29.93
2022-11-13T05:03:54.044Z,31.60
2022-11-13T05:09:15.335Z,31.20
2022-11-13T05:14:37.540Z,31.47
2022-11-13T05:19:58.564Z,33.20
2022-11-13T05:25:19.574Z,30.33
2022-11-13T05:30:40.555Z,27.07
2022-11-13T05:36:16.159Z,27.77
2022-11-13T05:41:37.079Z,27.97
2022-11-13T05:46:57.840Z,23.80
2022-11-13T05:52:18.796Z,23.50
2022-11-13T05:57:39.917Z,25.17
2022-11-13T06:03:00.992Z,23.40
2022-11-13T06:08:22.060Z,23.73
2022-11-13T06:13:42.974Z,21.17
2022-11-13T06:19:06.782Z,22.97
2022-11-13T06:24:27.660Z,21.27
2022-11-13T06:29:48.640Z,21.57
2022-11-13T06:35:09.610Z,19.33
2022-11-13T06:40:30.506Z,17.37
2022-11-13T06:45:51.532Z,18.30
2022-11-13T06:51:15.429Z,19.73
2022-11-13T06:56:36.115Z,19.53
2022-11-13T07:01:57.052Z,18.57
2022-11-13T07:07:17.909Z,18.77
2022-11-13T07:12:38.943Z,19.83
2022-11-13T07:18:01.489Z,18.33
2022-11-13T07:23:22.881Z,18.63
2022-11-13T07:28:44.111Z,16.27
2022-11-13T07:34:04.779Z,16.53
2022-11-13T07:39:26.717Z,22.00
2022-11-13T07:44:54.418Z,16.83
2022-11-13T07:50:16.407Z,16.30
2022-11-13T07:55:37.506Z,18.33
2022-11-13T08:01:05.803Z,17.50
2022-11-13T08:06:28.059Z,17.60
2022-11-13T08:11:49.173Z,16.73
2022-11-13T08:17:10.076Z,15.23
2022-11-13T08:22:31.299Z,19.77
2022-11-13T08:27:53.997Z,19.00
2022-11-13T08:33:14.496Z,16.50
2022-11-13T08:38:35.519Z,13.83
2022-11-13T08:43:56.311Z,9.67
2022-11-13T08:49:17.148Z,10.53
2022-11-13T08:54:37.993Z,11.00
2022-11-13T08:59:59.270Z,9.13
2022-11-13T09:05:19.905Z,6.57
2022-11-13T09:10:40.777Z,7.83
2022-11-13T09:16:03.235Z,9.77
2022-11-13T09:21:24.178Z,9.00
2022-11-13T09:26:44.939Z,10.80
2022-11-13T09:32:06.039Z,11.00
2022-11-13T09:37:27.001Z,11.23
2022-11-13T09:42:47.817Z,11.37
2022-11-13T09:48:30.199Z,9.80
2022-11-13T09:53:51.635Z,13.93
2022-11-13T09:59:30.397Z,10.40
2022-11-13T10:05:23.614Z,13.43
2022-11-13T10:11:02.056Z,15.50
2022-11-13T10:17:04.160Z,16.60
2022-11-13T10:22:34.555Z,19.03
2022-11-13T10:28:04.556Z,25.17
2022-11-13T10:33:36.801Z,30.53
2022-11-13T10:39:07.301Z,16.87
2022-11-13T10:44:43.723Z,17.33
2022-11-13T10:50:22.650Z,22.60
2022-11-13T10:55:44.208Z,18.90
2022-11-13T11:01:16.408Z,16.90
2022-11-13T11:12:30.613Z,22.47
2022-11-13T11:18:03.491Z,19.33
2022-11-13T11:23:50.615Z,22.90
2022-11-13T11:29:21.771Z,34.50
2022-11-13T11:34:48.967Z,40.40
2022-11-13T11:40:16.250Z,27.10
2022-11-13T11:45:40.775Z,70.37
2022-11-13T11:51:17.381Z,40.83
2022-11-13T11:56:50.638Z,45.10
2022-11-13T12:02:20.171Z,34.43
2022-11-13T12:08:00.101Z,33.00
2022-11-13T12:13:28.927Z,46.47
2022-11-13T12:19:04.870Z,62.57
2022-11-13T12:24:50.233Z,40.77
2022-11-13T12:30:42.212Z,38.70
2022-11-13T12:36:06.739Z,37.93
2022-11-13T12:41:45.560Z,34.63
2022-11-13T12:47:08.604Z,32.83
2022-11-13T12:52:29.974Z,39.27
2022-11-13T12:57:50.918Z,39.27
2022-11-13T13:03:39.255Z,40.50
2022-11-13T13:09:07.063Z,41.80
2022-11-13T13:14:54.984Z,38.57
2022-11-13T13:20:16.168Z,36.47
2022-11-13T13:25:38.144Z,36.27
2022-11-13T13:31:30.859Z,37.47
2022-11-13T13:37:01.083Z,42.03
2022-11-13T13:42:49.350Z,39.70
2022-11-13T13:48:12.501Z,37.70
2022-11-13T13:53:36.156Z,37.10
2022-11-13T13:58:56.886Z,35.23
2022-11-13T14:04:21.405Z,36.67
2022-11-13T14:09:42.586Z,39.37
2022-11-13T14:15:27.790Z,42.27
2022-11-13T14:20:55.328Z,43.83
2022-11-13T14:26:17.572Z,48.37
2022-11-13T14:31:39.075Z,42.13
2022-11-13T14:37:32.410Z,45.60
2022-11-13T14:42:59.673Z,38.07
2022-11-13T14:48:23.850Z,37.60
2022-11-13T14:53:44.812Z,48.20
2022-11-13T14:59:15.547Z,66.30
2022-11-13T15:04:40.621Z,44.53
2022-11-13T15:10:02.141Z,45.80
2022-11-13T15:15:30.939Z,39.13
2022-11-13T15:20:51.934Z,44.27
2022-11-13T15:26:12.825Z,40.70
2022-11-13T15:31:36.382Z,41.27
2022-11-13T15:36:57.410Z,41.83
2022-11-13T15:42:24.453Z,46.47
2022-11-13T15:47:45.300Z,41.23
2022-11-13T15:53:09.011Z,39.80
2022-11-13T15:58:33.516Z,40.10
2022-11-13T16:03:58.237Z,42.60
2022-11-13T16:09:19.222Z,51.60
2022-11-13T16:14:40.643Z,50.53
2022-11-13T16:20:01.774Z,43.60
2022-11-13T16:25:23.181Z,43.93
2022-11-13T16:30:45.146Z,58.00
2022-11-13T16:36:14.785Z,51.77
2022-11-13T16:41:37.513Z,40.93
2022-11-13T16:46:58.579Z,42.03
2022-11-13T16:52:19.754Z,41.93
2022-11-13T16:57:40.997Z,40.47
2022-11-13T17:03:02.027Z,43.57
2022-11-13T17:08:23.352Z,40.07
2022-11-13T17:13:48.818Z,44.33
2022-11-13T17:19:13.687Z,48.60
2022-11-13T17:24:34.644Z,41.57
2022-11-13T17:29:55.863Z,42.47
2022-11-13T17:35:16.924Z,40.77
2022-11-13T17:40:37.930Z,36.27
2022-11-13T17:45:59.472Z,38.53
2022-11-13T17:51:20.392Z,36.13
2022-11-13T17:56:42.876Z,36.87
2022-11-13T18:02:04.131Z,37.00
2022-11-13T18:07:25.445Z,38.73
2022-11-13T18:12:49.553Z,46.13
2022-11-13T18:18:10.461Z,37.83
2022-11-13T18:23:31.656Z,37.57
2022-11-13T18:28:53.177Z,47.77
2022-11-13T18:34:16.681Z,47.30
2022-11-13T18:39:37.638Z,45.37
2022-11-13T18:45:01.719Z,46.90
2022-11-13T18:50:28.197Z,46.17
2022-11-13T18:55:49.086Z,58.00
2022-11-13T19:01:33.711Z,138.63
2022-11-13T19:06:54.817Z,40.27
2022-11-13T19:12:16.001Z,60.97
2022-11-13T19:17:37.022Z,38.87
2022-11-13T19:22:58.042Z,45.40
2022-11-13T19:28:18.696Z,45.30
2022-11-13T19:33:40.415Z,42.97
2022-11-13T19:39:01.176Z,38.63
2022-11-13T19:44:21.998Z,48.67
2022-11-13T19:49:42.963Z,42.17
2022-11-13T19:55:04.146Z,40.27
2022-11-13T20:00:25.092Z,50.23
2022-11-13T20:05:46.243Z,56.87
2022-11-13T20:11:10.698Z,50.23
2022-11-13T20:16:31.893Z,41.27
2022-11-13T20:21:53.605Z,37.17
2022-11-13T20:27:14.502Z,47.27
2022-11-13T20:32:39.646Z,44.53
2022-11-13T20:38:00.216Z,55.10
2022-11-13T20:43:21.076Z,53.87
2022-11-13T20:48:42.010Z,44.67
2022-11-13T20:54:03.854Z,45.10
2022-11-13T20:59:24.780Z,43.03
2022-11-13T21:04:45.486Z,44.80
2022-11-13T21:10:07.064Z,42.27
2022-11-13T21:15:28.121Z,47.13
2022-11-13T21:20:49.437Z,41.30
2022-11-13T21:26:10.181Z,39.20
2022-11-13T21:31:31.012Z,39.27
2022-11-13T21:36:51.838Z,40.07
2022-11-13T21:42:12.761Z,38.77
2022-11-13T21:47:33.807Z,39.20
2022-11-13T21:52:54.525Z,38.57
2022-11-13T21:58:15.411Z,39.60
2022-11-13T22:03:36.797Z,41.97
2022-11-13T22:09:06.430Z,40.03
2022-11-13T22:14:27.217Z,41.47
2022-11-13T22:19:47.939Z,40.43
2022-11-13T22:25:09.135Z,43.40
2022-11-13T22:30:29.841Z,40.43
2022-11-13T22:35:50.619Z,39.87
2022-11-13T22:41:23.249Z,42.47
2022-11-13T22:46:44.467Z,42.97
2022-11-13T22:52:05.486Z,40.87
2022-11-13T22:57:26.457Z,42.13
2022-11-13T23:02:47.708Z,43.47
2022-11-13T23:08:08.944Z,44.47
2022-11-13T23:13:29.907Z,42.27
2022-11-13T23:18:52.106Z,43.60
2022-11-13T23:24:12.951Z,44.27
2022-11-13T23:29:33.608Z,46.20
2022-11-13T23:35:01.880Z,43.40
2022-11-13T23:40:22.900Z,47.40
2022-11-13T23:45:43.351Z,48.13
2022-11-13T23:51:04.750Z,53.40
2022-11-13T23:56:25.510Z,45.13
